createdAt,value
2019-03-30T00:03:56.490Z,66.40
2019-03-30T00:08:03.875Z,66.58
2019-03-30T00:12:09.606Z,66.65
2019-03-30T00:16:15.297Z,67.32
2019-03-30T00:20:32.164Z,67.21
2019-03-30T00:24:38.026Z,67.21
2019-03-30T00:28:43.760Z,67.59
2019-03-30T00:33:08.259Z,68.10
2019-03-30T00:37:14.085Z,67.88
2019-03-30T00:41:19.824Z,67.97
2019-03-30T00:45:37.529Z,67.89
2019-03-30T00:49:52.118Z,67.78
2019-03-30T00:58:15.144Z,66.40
2019-03-30T01:02:22.997Z,65.82
2019-03-30T01:06:28.751Z,65.86
2019-03-30T01:10:34.514Z,66.22
2019-03-30T01:14:52.929Z,67.09
2019-03-30T01:18:58.709Z,67.09
2019-03-30T01:23:18.147Z,67.56
2019-03-30T01:27:23.835Z,67.48
2019-03-30T01:31:34.244Z,66.92
2019-03-30T01:35:41.953Z,67.37
2019-03-30T01:39:47.737Z,66.46
2019-03-30T01:43:54.365Z,65.93
2019-03-30T01:48:11.992Z,65.32
2019-03-30T01:52:18.443Z,65.35
2019-03-30T02:01:01.307Z,65.44
2019-03-30T02:05:09.451Z,65.62
2019-03-30T02:09:15.212Z,65.82
2019-03-30T02:13:21.145Z,65.48
2019-03-30T02:17:50.869Z,65.13
2019-03-30T02:22:10.837Z,65.32
2019-03-30T02:31:00.002Z,66.58
2019-03-30T02:35:08.859Z,66.58
2019-03-30T02:39:14.652Z,66.24
2019-03-30T02:43:21.922Z,66.34
2019-03-30T02:47:27.657Z,66.19
2019-03-30T02:51:52.477Z,66.70
2019-03-30T02:56:00.377Z,66.58
2019-03-30T03:00:25.835Z,66.82
2019-03-30T03:04:31.548Z,66.41
2019-03-30T03:08:37.329Z,67.01
2019-03-30T03:12:43.551Z,68.05
2019-03-30T03:16:49.352Z,68.01
2019-03-30T03:21:07.225Z,68.45
2019-03-30T03:25:13.830Z,68.97
2019-03-30T03:29:19.600Z,68.97
2019-03-30T03:33:25.251Z,68.03
2019-03-30T03:37:44.742Z,69.79
2019-03-30T03:41:57.406Z,69.82
2019-03-30T03:46:14.430Z,69.55
2019-03-30T03:50:57.773Z,69.69
2019-03-30T04:00:20.620Z,69.64
2019-03-30T04:13:54.148Z,69.43
2019-03-30T04:17:59.872Z,68.08
2019-03-30T04:22:05.715Z,68.84
2019-03-30T04:26:11.506Z,69.80
2019-03-30T04:30:17.217Z,69.82
2019-03-30T04:34:22.928Z,69.40
2019-03-30T04:38:28.773Z,69.12
2019-03-30T04:42:34.459Z,68.68
2019-03-30T04:46:40.295Z,68.14
2019-03-30T04:50:45.975Z,68.49
2019-03-30T04:54:51.718Z,67.82
2019-03-30T04:58:57.506Z,68.45
2019-03-30T05:03:03.260Z,68.63
2019-03-30T05:07:09.036Z,68.24
2019-03-30T05:11:14.891Z,68.64
2019-03-30T05:15:20.566Z,69.43
2019-03-30T05:19:26.620Z,69.87
2019-03-30T05:23:32.288Z,69.80
2019-03-30T05:27:38.031Z,70.16
2019-03-30T05:31:43.770Z,70.48
2019-03-30T05:35:49.458Z,70.70
2019-03-30T05:39:55.323Z,70.87
2019-03-30T05:44:01.015Z,69.82
2019-03-30T05:48:06.754Z,70.63
2019-03-30T05:52:25.928Z,71.67
2019-03-30T05:56:25.632Z,71.05
2019-03-30T06:00:31.360Z,70.27
2019-03-30T06:04:37.226Z,69.61
2019-03-30T06:08:42.964Z,69.04
2019-03-30T06:12:48.664Z,68.34
2019-03-30T06:16:54.689Z,68.50
2019-03-30T06:21:00.350Z,67.63
2019-03-30T06:25:06.086Z,67.00
2019-03-30T06:33:36.386Z,67.03
2019-03-30T06:37:53.681Z,66.13
2019-03-30T06:41:59.384Z,66.22
2019-03-30T06:46:05.120Z,66.19
2019-03-30T06:50:11.266Z,65.78
2019-03-30T06:54:17.231Z,64.92
2019-03-30T06:58:23.023Z,65.17
2019-03-30T07:07:05.988Z,63.20
2019-03-30T07:11:50.857Z,63.20
2019-03-30T07:20:33.954Z,61.85
2019-03-30T07:24:39.712Z,61.42
2019-03-30T07:28:47.156Z,60.43
2019-03-30T07:32:57.929Z,58.58
2019-03-30T07:37:03.718Z,57.41
2019-03-30T07:41:09.354Z,57.13
2019-03-30T07:45:26.500Z,57.61
2019-03-30T07:49:53.714Z,57.50
2019-03-30T07:53:59.465Z,57.28
2019-03-30T07:58:24.011Z,56.40
2019-03-30T08:02:29.762Z,56.40
2019-03-30T08:06:35.491Z,55.01
2019-03-30T08:10:42.548Z,53.39
2019-03-30T08:14:48.242Z,53.18
2019-03-30T08:18:54.137Z,51.17
2019-03-30T08:22:59.958Z,50.29
2019-03-30T08:27:05.826Z,50.26
2019-03-30T08:31:11.887Z,49.52
2019-03-30T08:35:20.250Z,49.55
2019-03-30T08:39:26.360Z,49.41
2019-03-30T08:43:32.263Z,48.02
2019-03-30T08:47:40.371Z,46.97
2019-03-30T08:51:46.595Z,45.51
2019-03-30T08:55:52.597Z,44.53
2019-03-30T08:59:58.444Z,43.33
2019-03-30T09:04:04.433Z,42.85
2019-03-30T09:08:10.493Z,41.38
2019-03-30T09:12:16.299Z,41.61
2019-03-30T09:16:34.722Z,41.19
2019-03-30T09:20:40.525Z,40.49
2019-03-30T09:24:47.943Z,39.71
2019-03-30T09:28:54.066Z,39.12
2019-03-30T09:37:32.257Z,39.39
2019-03-30T09:41:38.161Z,38.99
2019-03-30T09:45:44.140Z,37.98
2019-03-30T09:49:50.284Z,37.01
2019-03-30T09:53:56.250Z,37.02
2019-03-30T09:58:02.648Z,36.40
2019-03-30T10:02:08.546Z,36.01
2019-03-30T10:06:14.409Z,35.37
2019-03-30T10:10:20.110Z,35.35
2019-03-30T10:14:25.805Z,35.75
2019-03-30T10:18:31.540Z,35.55
2019-03-30T10:22:37.531Z,35.12
2019-03-30T10:26:43.228Z,35.66
2019-03-30T10:30:48.968Z,34.97
2019-03-30T10:34:54.694Z,34.67
2019-03-30T10:39:00.339Z,33.81
2019-03-30T10:43:07.672Z,34.64
2019-03-30T10:47:13.523Z,34.33
2019-03-30T10:51:19.514Z,34.32
2019-03-30T10:55:25.456Z,32.62
2019-03-30T10:59:31.267Z,32.23
2019-03-30T11:03:37.028Z,32.52
2019-03-30T11:07:42.776Z,31.93
2019-03-30T11:16:20.221Z,32.09
2019-03-30T11:20:27.692Z,32.17
2019-03-30T11:24:33.917Z,31.93
2019-03-30T11:28:59.217Z,32.85
2019-03-30T11:33:06.078Z,31.35
2019-03-30T11:37:12.527Z,31.81
2019-03-30T11:41:18.334Z,31.12
2019-03-30T11:45:24.265Z,31.87
2019-03-30T11:49:31.522Z,31.60
2019-03-30T11:53:38.578Z,31.13
2019-03-30T11:57:48.622Z,32.11
2019-03-30T12:01:54.406Z,30.77
2019-03-30T12:06:00.138Z,30.11
2019-03-30T12:10:07.394Z,31.16
2019-03-30T12:14:13.121Z,33.20
2019-03-30T12:18:19.493Z,31.79
2019-03-30T12:27:32.326Z,30.57
2019-03-30T12:31:38.136Z,30.57
2019-03-30T12:35:43.916Z,30.07
2019-03-30T12:39:49.780Z,30.30
2019-03-30T12:43:55.590Z,30.00
2019-03-30T12:48:04.655Z,30.19
2019-03-30T12:52:29.342Z,29.58
2019-03-30T12:56:35.086Z,30.14
2019-03-30T13:00:40.875Z,30.65
2019-03-30T13:04:46.594Z,30.71
2019-03-30T13:08:52.290Z,32.21
2019-03-30T13:12:58.020Z,30.88
2019-03-30T13:17:03.776Z,31.90
2019-03-30T13:21:09.546Z,32.37
2019-03-30T13:25:15.325Z,30.56
2019-03-30T13:29:21.138Z,31.46
2019-03-30T13:38:20.652Z,30.46
2019-03-30T13:42:30.951Z,28.99
2019-03-30T13:46:36.635Z,29.33
2019-03-30T13:50:44.112Z,27.99
2019-03-30T13:54:49.954Z,28.36
2019-03-30T13:58:57.105Z,27.58
2019-03-30T14:03:03.007Z,26.87
2019-03-30T14:07:09.001Z,26.41
2019-03-30T14:11:14.688Z,26.62
2019-03-30T14:19:24.714Z,27.67
2019-03-30T14:23:30.723Z,27.20
2019-03-30T14:27:36.440Z,25.86
2019-03-30T14:31:42.164Z,25.61
2019-03-30T14:35:48.020Z,27.78
2019-03-30T14:39:53.729Z,25.29
2019-03-30T14:44:18.675Z,23.99
2019-03-30T14:48:24.402Z,24.87
2019-03-30T14:52:30.095Z,27.22
2019-03-30T14:56:45.359Z,25.06
2019-03-30T15:01:03.317Z,24.21
2019-03-30T15:05:54.408Z,23.24
2019-03-30T15:10:00.407Z,21.04
2019-03-30T15:14:06.341Z,24.65
2019-03-30T15:18:12.103Z,24.79
2019-03-30T15:22:18.166Z,22.61
2019-03-30T15:26:23.876Z,24.75
2019-03-30T15:30:29.655Z,25.39
2019-03-30T15:34:35.458Z,27.00
2019-03-30T15:38:41.165Z,25.82
2019-03-30T15:42:46.938Z,26.22
2019-03-30T15:46:52.652Z,25.25
2019-03-30T15:55:16.798Z,26.47
2019-03-30T15:59:22.483Z,26.08
2019-03-30T16:03:28.205Z,25.29
2019-03-30T16:07:33.904Z,24.36
2019-03-30T16:11:40.070Z,26.20
2019-03-30T16:15:45.781Z,28.42
2019-03-30T16:19:54.310Z,27.39
2019-03-30T16:24:00.027Z,24.86
2019-03-30T16:28:05.698Z,24.74
2019-03-30T16:32:11.370Z,24.33
2019-03-30T16:36:17.091Z,24.38
2019-03-30T16:40:22.860Z,25.03
2019-03-30T16:44:28.529Z,26.55
2019-03-30T16:48:34.240Z,27.79
2019-03-30T16:52:41.107Z,26.91
2019-03-30T16:56:53.563Z,29.49
2019-03-30T17:00:59.369Z,28.18
2019-03-30T17:05:05.662Z,27.57
2019-03-30T17:09:12.948Z,26.98
2019-03-30T17:13:18.805Z,27.00
2019-03-30T17:17:24.578Z,28.18
2019-03-30T17:21:30.313Z,31.08
2019-03-30T17:25:36.058Z,28.70
2019-03-30T17:29:42.168Z,31.16
2019-03-30T17:33:48.329Z,31.59
2019-03-30T17:37:54.138Z,32.95
2019-03-30T17:42:00.002Z,33.82
2019-03-30T17:46:05.835Z,34.17
2019-03-30T17:50:32.242Z,34.92
2019-03-30T17:54:39.882Z,33.64
2019-03-30T17:58:55.061Z,33.66
2019-03-30T18:03:01.145Z,35.21
2019-03-30T18:07:13.783Z,36.59
2019-03-30T18:11:25.737Z,36.42
2019-03-30T18:15:34.501Z,38.30
2019-03-30T18:24:13.047Z,39.89
2019-03-30T18:28:26.960Z,41.70
2019-03-30T18:32:45.526Z,42.95
2019-03-30T18:37:02.465Z,42.30
2019-03-30T18:41:08.236Z,38.63
2019-03-30T18:49:51.968Z,41.81
2019-03-30T18:54:23.786Z,41.31
2019-03-30T18:58:40.938Z,45.34
2019-03-30T19:02:55.941Z,45.14
2019-03-30T19:07:01.722Z,47.61
2019-03-30T19:11:07.498Z,48.49
2019-03-30T19:15:13.160Z,46.74
2019-03-30T19:19:18.782Z,46.77
2019-03-30T19:23:24.439Z,49.42
2019-03-30T19:27:30.883Z,47.45
2019-03-30T19:31:36.713Z,48.55
2019-03-30T19:35:42.399Z,47.53
2019-03-30T19:39:48.099Z,45.12
2019-03-30T19:43:53.888Z,46.33
2019-03-30T19:47:59.690Z,47.25
2019-03-30T19:52:05.971Z,48.72
2019-03-30T19:56:12.040Z,47.73
2019-03-30T20:05:19.328Z,50.13
2019-03-30T20:09:25.018Z,47.79
2019-03-30T20:13:30.739Z,49.09
2019-03-30T20:17:36.520Z,49.60
2019-03-30T20:26:00.431Z,48.96
2019-03-30T20:30:18.715Z,49.23
2019-03-30T20:34:24.436Z,51.33
2019-03-30T20:38:30.937Z,53.63
2019-03-30T20:42:36.704Z,52.99
2019-03-30T20:46:43.798Z,53.24
2019-03-30T20:50:55.292Z,53.69
2019-03-30T20:55:01.044Z,55.47
2019-03-30T20:59:06.788Z,55.09
2019-03-30T21:03:12.928Z,54.95
2019-03-30T21:07:20.843Z,56.08
2019-03-30T21:11:26.559Z,53.48
2019-03-30T21:15:32.290Z,55.24
2019-03-30T21:19:38.123Z,56.67
2019-03-30T21:23:43.832Z,57.13
2019-03-30T21:27:49.540Z,58.15
2019-03-30T21:31:55.210Z,57.85
2019-03-30T21:36:00.981Z,57.04
2019-03-30T21:40:07.108Z,57.76
2019-03-30T21:44:22.059Z,58.77
2019-03-30T21:48:39.704Z,60.00
2019-03-30T21:52:45.515Z,59.88
2019-03-30T21:56:51.296Z,59.15
2019-03-30T22:00:59.848Z,58.84
2019-03-30T22:05:10.290Z,57.15
2019-03-30T22:09:16.067Z,57.32
2019-03-30T22:13:22.086Z,58.77
2019-03-30T22:17:28.131Z,61.33
2019-03-30T22:21:34.128Z,58.02
2019-03-30T22:25:39.896Z,59.61
2019-03-30T22:29:45.578Z,61.89
2019-03-30T22:33:51.279Z,61.81
2019-03-30T22:37:56.982Z,63.23
2019-03-30T22:42:02.639Z,62.97
2019-03-30T22:46:09.488Z,64.50
2019-03-30T22:50:15.207Z,64.14
2019-03-30T22:54:20.963Z,62.17
2019-03-30T22:58:26.667Z,62.04
2019-03-30T23:02:32.676Z,63.03
2019-03-30T23:06:38.362Z,62.48
2019-03-30T23:10:44.147Z,64.24
2019-03-30T23:14:49.847Z,64.99
2019-03-30T23:18:55.636Z,64.99
2019-03-30T23:23:01.391Z,65.84
2019-03-30T23:27:07.086Z,65.14
2019-03-30T23:31:12.928Z,63.98
2019-03-30T23:35:18.788Z,63.98
2019-03-30T23:39:24.646Z,62.97
2019-03-30T23:43:30.414Z,62.33
2019-03-30T23:47:36.079Z,64.70
2019-03-30T23:51:41.873Z,64.72
2019-03-30T23:55:47.686Z,63.57
2019-03-30T23:59:53.422Z,65.12
